Portland, Oregon
Current Conditions -  °F | °C
As of 6:53 PM on Wednesday 22 Oct 2014 (Local Time) from KPDX Reporting Station
Light Rain Light Rain  
Wind Chill: 57°   Ceiling: 1100
Heat Index: 57°   Visibility: 7mi
Dew Point: 56°   Wind: 13mph
Humidity: 96%   Direction: 130°SE
Pressure: 29.7"   Gusts: NA
Location:  45.51°N, 122.67°W
Report Text: KPDX 230153Z 13011KT 7SM -RA BKN011 BKN055 OVC080 14/13 A2970 RMK AO2 SLP057 P0009 T01390133
Loading
Personal Weather Stations






























Interactive Weather Map
Tropical Storm Tracking
New forecast layout! Learn more

10-Day Weather Forecast

Advertisements
Track Severe Weather on mobile